createdAt,value
2022-08-03T00:02:50.438Z,16.35
2022-08-03T00:06:04.120Z,16.35
2022-08-03T00:09:10.015Z,16.34
2022-08-03T00:12:14.251Z,16.31
2022-08-03T00:15:18.759Z,16.29
2022-08-03T00:18:23.095Z,16.28
2022-08-03T00:21:27.335Z,16.26
2022-08-03T00:24:31.411Z,16.22
2022-08-03T00:27:35.477Z,16.20
2022-08-03T00:30:39.810Z,16.20
2022-08-03T00:33:58.905Z,16.20
2022-08-03T00:37:07.185Z,16.23
2022-08-03T00:40:13.972Z,16.24
2022-08-03T00:43:18.296Z,16.24
2022-08-03T00:46:22.155Z,16.25
2022-08-03T00:49:26.229Z,16.26
2022-08-03T00:52:30.147Z,16.28
2022-08-03T00:55:36.005Z,16.29
2022-08-03T00:58:40.132Z,16.31
2022-08-03T01:01:44.286Z,16.32
2022-08-03T01:04:48.332Z,16.36
2022-08-03T01:08:07.861Z,16.40
2022-08-03T01:11:19.256Z,16.44
2022-08-03T01:14:32.533Z,16.46
2022-08-03T01:17:45.088Z,16.51
2022-08-03T01:20:58.231Z,16.56
2022-08-03T01:24:23.574Z,16.61
2022-08-03T01:27:42.255Z,16.64
2022-08-03T01:30:47.839Z,16.69
2022-08-03T01:33:59.218Z,16.69
2022-08-03T01:37:08.019Z,16.70
2022-08-03T01:40:14.526Z,16.69
2022-08-03T01:43:58.986Z,16.68
2022-08-03T01:46:50.782Z,16.69
2022-08-03T01:49:57.700Z,16.69
2022-08-03T01:53:03.133Z,16.72
2022-08-03T01:56:08.648Z,16.75
2022-08-03T01:59:14.993Z,16.79
2022-08-03T02:02:33.608Z,16.85
2022-08-03T02:05:41.131Z,16.87
2022-08-03T02:08:47.558Z,16.90
2022-08-03T02:11:53.188Z,16.90
2022-08-03T02:14:59.936Z,16.92
2022-08-03T02:18:09.948Z,16.92
2022-08-03T02:21:55.950Z,16.92
2022-08-03T02:24:40.112Z,16.92
2022-08-03T02:27:51.454Z,16.93
2022-08-03T02:30:57.083Z,16.95
2022-08-03T02:34:03.617Z,16.97
2022-08-03T02:37:10.226Z,17.01
2022-08-03T02:40:20.876Z,17.04
2022-08-03T02:43:26.458Z,17.06
2022-08-03T02:46:34.038Z,17.07
2022-08-03T02:49:51.675Z,17.08
2022-08-03T02:52:58.593Z,17.09
2022-08-03T02:56:04.625Z,17.09
2022-08-03T02:59:10.458Z,17.10
2022-08-03T03:02:17.232Z,17.11
2022-08-03T03:05:55.015Z,17.13
2022-08-03T03:08:51.662Z,17.16
2022-08-03T03:11:56.743Z,17.19
2022-08-03T03:15:00.731Z,17.20
2022-08-03T03:18:05.800Z,17.22
2022-08-03T03:21:11.304Z,17.24
2022-08-03T03:24:16.324Z,17.23
2022-08-03T03:27:20.840Z,17.24
2022-08-03T03:30:25.491Z,17.24
2022-08-03T03:33:29.703Z,17.24
2022-08-03T03:36:33.896Z,17.24
2022-08-03T03:39:37.725Z,17.25
2022-08-03T03:42:42.831Z,17.26
2022-08-03T03:45:47.577Z,17.29
2022-08-03T03:48:51.607Z,17.33
2022-08-03T03:51:56.336Z,17.38
2022-08-03T03:55:01.201Z,17.45
2022-08-03T03:58:06.071Z,17.53
2022-08-03T04:01:10.392Z,17.59
2022-08-03T04:04:32.709Z,17.67
2022-08-03T04:08:04.724Z,17.77
2022-08-03T04:11:14.858Z,17.93
2022-08-03T04:14:22.777Z,18.07
2022-08-03T04:17:29.185Z,18.21
2022-08-03T04:20:35.347Z,18.37
2022-08-03T04:23:44.570Z,18.56
2022-08-03T04:26:52.782Z,18.79
2022-08-03T04:29:59.641Z,19.06
2022-08-03T04:33:03.589Z,19.39
2022-08-03T04:36:12.551Z,19.60
2022-08-03T04:39:23.847Z,19.81
2022-08-03T04:42:28.368Z,20.07
2022-08-03T04:45:35.856Z,20.29
2022-08-03T04:48:44.595Z,20.42
2022-08-03T04:51:49.419Z,20.57
2022-08-03T04:54:53.389Z,20.73
2022-08-03T04:57:57.518Z,21.03
2022-08-03T05:01:01.851Z,21.27
2022-08-03T05:04:05.797Z,21.45
2022-08-03T05:07:12.433Z,21.62
2022-08-03T05:10:17.145Z,21.83
2022-08-03T05:13:21.763Z,22.02
2022-08-03T05:16:26.305Z,22.23
2022-08-03T05:19:30.397Z,22.57
2022-08-03T05:22:34.222Z,22.93
2022-08-03T05:25:38.631Z,23.26
2022-08-03T05:28:50.850Z,23.37
2022-08-03T05:31:55.421Z,23.42
2022-08-03T05:35:00.411Z,23.42
2022-08-03T05:38:33.185Z,23.48
2022-08-03T05:41:39.760Z,23.82
2022-08-03T05:44:43.726Z,24.33
2022-08-03T05:47:50.540Z,24.91
2022-08-03T05:50:54.496Z,25.57
2022-08-03T05:53:58.412Z,26.12
2022-08-03T05:57:02.636Z,26.59
2022-08-03T06:00:09.893Z,27.06
2022-08-03T06:03:16.468Z,27.26
2022-08-03T06:06:24.070Z,27.36
2022-08-03T06:10:33.196Z,27.34
2022-08-03T06:12:53.605Z,27.59
2022-08-03T06:15:57.696Z,27.86
2022-08-03T06:19:01.472Z,28.11
2022-08-03T06:22:05.362Z,28.11
2022-08-03T06:25:12.955Z,28.07
2022-08-03T06:28:51.178Z,27.91
2022-08-03T06:31:42.371Z,27.63
2022-08-03T06:34:46.347Z,27.37
2022-08-03T06:37:51.359Z,27.13
2022-08-03T06:40:55.268Z,26.80
2022-08-03T06:44:03.486Z,26.52
2022-08-03T06:47:08.140Z,26.38
2022-08-03T06:50:16.974Z,26.55
2022-08-03T06:53:22.135Z,26.79
2022-08-03T06:56:25.896Z,27.15
2022-08-03T07:00:09.904Z,27.45
2022-08-03T07:02:58.048Z,27.81
2022-08-03T07:06:03.495Z,28.21
2022-08-03T07:09:07.566Z,28.60
2022-08-03T07:12:11.935Z,28.88
2022-08-03T07:15:20.554Z,29.18
2022-08-03T07:18:42.105Z,29.38
2022-08-03T07:21:46.787Z,29.47
2022-08-03T07:24:50.791Z,29.54
2022-08-03T07:27:54.697Z,29.61
2022-08-03T07:31:00.309Z,29.60
2022-08-03T07:34:04.447Z,29.55
2022-08-03T07:37:09.667Z,29.57
2022-08-03T07:40:13.651Z,29.64
2022-08-03T07:43:18.116Z,29.69
2022-08-03T07:46:22.239Z,29.75
2022-08-03T07:49:30.891Z,29.75
2022-08-03T07:52:49.575Z,29.79
2022-08-03T07:55:53.943Z,29.84
2022-08-03T07:59:02.485Z,29.95
2022-08-03T08:02:07.316Z,30.10
2022-08-03T08:05:11.979Z,30.26
2022-08-03T08:08:16.304Z,30.42
2022-08-03T08:11:24.349Z,30.53
2022-08-03T08:14:27.252Z,30.61
2022-08-03T08:17:31.130Z,30.70
2022-08-03T08:20:38.035Z,30.78
2022-08-03T08:23:44.878Z,30.84
2022-08-03T08:26:50.890Z,31.03
2022-08-03T08:30:00.563Z,31.20
2022-08-03T08:33:22.340Z,31.49
2022-08-03T08:36:27.796Z,31.81
2022-08-03T08:39:32.008Z,31.97
2022-08-03T08:42:40.262Z,32.21
2022-08-03T08:45:49.340Z,32.55
2022-08-03T08:48:54.622Z,32.87
2022-08-03T08:52:01.158Z,33.22
2022-08-03T08:55:09.559Z,33.44
2022-08-03T08:58:20.790Z,33.73
2022-08-03T09:01:28.087Z,34.00
2022-08-03T09:04:32.257Z,34.04
2022-08-03T09:07:36.905Z,33.90
2022-08-03T09:10:43.762Z,33.79
2022-08-03T09:13:48.048Z,33.72
2022-08-03T09:17:00.398Z,33.72
2022-08-03T09:20:09.381Z,33.67
2022-08-03T09:23:59.732Z,33.58
2022-08-03T09:26:38.399Z,33.52
2022-08-03T09:29:47.845Z,33.67
2022-08-03T09:32:59.856Z,33.80
2022-08-03T09:36:04.395Z,33.85
2022-08-03T09:39:10.964Z,33.90
2022-08-03T09:42:17.139Z,33.98
2022-08-03T09:45:27.762Z,34.10
2022-08-03T09:48:34.297Z,34.18
2022-08-03T09:52:39.324Z,34.13
2022-08-03T09:55:07.664Z,34.13
2022-08-03T09:58:32.477Z,34.04
2022-08-03T10:01:38.222Z,34.04
2022-08-03T10:04:51.978Z,33.91
2022-08-03T10:07:56.231Z,33.88
2022-08-03T10:11:00.176Z,34.04
2022-08-03T10:14:06.637Z,34.27
2022-08-03T10:17:15.444Z,34.47
2022-08-03T10:20:20.008Z,34.58
2022-08-03T10:23:26.183Z,34.44
2022-08-03T10:26:33.086Z,34.54
2022-08-03T10:29:42.910Z,34.68
2022-08-03T10:32:52.498Z,34.85
2022-08-03T10:35:59.325Z,34.89
2022-08-03T10:39:04.203Z,34.93
2022-08-03T10:42:27.140Z,35.08
2022-08-03T10:45:34.264Z,35.16
2022-08-03T10:48:39.525Z,35.05
2022-08-03T10:51:44.604Z,35.17
2022-08-03T10:55:10.962Z,35.38
2022-08-03T10:58:15.459Z,35.36
2022-08-03T11:02:00.338Z,35.27
2022-08-03T11:05:36.052Z,35.16
2022-08-03T11:08:40.956Z,35.03
2022-08-03T11:11:48.558Z,35.11
2022-08-03T11:14:55.052Z,35.21
2022-08-03T11:18:11.200Z,35.38
2022-08-03T11:21:15.636Z,35.35
2022-08-03T11:24:53.435Z,35.38
2022-08-03T11:28:26.802Z,35.41
2022-08-03T11:31:50.130Z,35.47
2022-08-03T11:35:10.445Z,35.66
2022-08-03T11:38:14.380Z,35.72
2022-08-03T11:41:44.936Z,35.82
2022-08-03T11:44:50.301Z,35.73
2022-08-03T11:47:55.766Z,35.44
2022-08-03T12:01:35.912Z,35.41
2022-08-03T12:04:58.364Z,35.49
2022-08-03T12:08:09.266Z,35.77
2022-08-03T12:11:21.989Z,35.96
2022-08-03T12:14:50.665Z,36.11
2022-08-03T12:18:03.018Z,36.15
2022-08-03T12:21:12.206Z,36.36
2022-08-03T12:24:20.379Z,36.25
2022-08-03T12:27:30.381Z,36.48
2022-08-03T12:30:38.036Z,36.62
2022-08-03T12:34:07.329Z,36.80
2022-08-03T12:37:28.996Z,37.01
2022-08-03T12:40:36.673Z,37.09
2022-08-03T12:43:50.377Z,37.09
2022-08-03T12:47:00.600Z,37.13
2022-08-03T12:50:08.714Z,37.07
2022-08-03T12:53:29.643Z,36.74
2022-08-03T12:56:39.482Z,36.38
2022-08-03T12:59:53.621Z,36.20
2022-08-03T13:06:35.978Z,36.34
2022-08-03T13:09:48.909Z,36.57
2022-08-03T13:12:58.662Z,36.47
2022-08-03T13:16:07.266Z,36.47
2022-08-03T13:19:15.471Z,36.73
2022-08-03T13:22:25.785Z,37.01
2022-08-03T13:25:34.238Z,37.15
2022-08-03T13:28:39.910Z,37.06
2022-08-03T13:31:50.490Z,36.94
2022-08-03T13:34:59.136Z,37.16
2022-08-03T13:38:06.439Z,37.43
2022-08-03T13:41:16.378Z,37.37
2022-08-03T13:44:29.713Z,37.33
2022-08-03T13:47:37.946Z,37.10
2022-08-03T13:50:45.300Z,37.36
2022-08-03T13:53:55.357Z,37.71
2022-08-03T13:58:02.399Z,37.96
2022-08-03T14:00:30.070Z,38.12
2022-08-03T14:03:37.550Z,38.22
2022-08-03T14:06:49.444Z,38.22
2022-08-03T14:09:58.184Z,38.32
2022-08-03T14:13:08.160Z,38.52
2022-08-03T14:16:16.867Z,38.79
2022-08-03T14:19:24.906Z,38.74
2022-08-03T14:22:33.186Z,38.57
2022-08-03T14:25:43.215Z,38.44
2022-08-03T14:28:57.768Z,38.67
2022-08-03T14:32:10.362Z,38.82
2022-08-03T14:35:19.810Z,39.00
2022-08-03T14:38:34.459Z,39.29
2022-08-03T14:41:41.932Z,39.43
2022-08-03T14:44:49.760Z,39.51
2022-08-03T14:50:29.395Z,39.50
2022-08-03T14:51:24.564Z,38.88
2022-08-03T14:54:32.187Z,38.66
2022-08-03T14:57:39.360Z,38.74
2022-08-03T15:00:47.602Z,39.00
2022-08-03T15:03:54.983Z,39.24
2022-08-03T15:07:02.634Z,38.80
2022-08-03T15:10:10.786Z,39.10
2022-08-03T15:13:18.529Z,39.44
2022-08-03T15:16:29.841Z,39.47
2022-08-03T15:20:03.681Z,39.67
2022-08-03T15:23:04.858Z,39.90
2022-08-03T15:26:32.673Z,40.40
2022-08-03T15:30:08.920Z,40.91
2022-08-03T15:33:07.382Z,41.35
2022-08-03T15:36:14.905Z,41.75
2022-08-03T15:39:22.450Z,41.68
2022-08-03T15:42:30.794Z,41.76
2022-08-03T15:45:38.227Z,41.81
2022-08-03T15:48:45.507Z,41.68
2022-08-03T15:51:53.071Z,41.84
2022-08-03T15:55:00.351Z,41.92
2022-08-03T15:59:03.616Z,42.00
2022-08-03T16:01:35.060Z,42.03
2022-08-03T16:04:44.385Z,42.27
2022-08-03T16:08:03.063Z,42.48
2022-08-03T16:11:12.042Z,42.60
2022-08-03T16:14:35.632Z,42.74
2022-08-03T16:17:50.956Z,42.46
2022-08-03T16:21:00.243Z,41.72
2022-08-03T16:24:08.465Z,40.72
2022-08-03T16:27:37.088Z,39.61
2022-08-03T16:30:52.677Z,38.70
2022-08-03T16:34:00.948Z,38.03
2022-08-03T16:37:36.619Z,38.08
2022-08-03T16:40:36.346Z,38.42
2022-08-03T16:43:43.823Z,38.83
2022-08-03T16:46:51.202Z,38.79
2022-08-03T16:50:00.595Z,38.61
2022-08-03T16:53:16.438Z,38.88
2022-08-03T16:56:24.029Z,39.27
2022-08-03T16:59:36.282Z,39.70
2022-08-03T17:02:50.288Z,40.07
2022-08-03T17:05:59.649Z,40.34
2022-08-03T17:09:13.992Z,40.37
2022-08-03T17:12:21.496Z,40.33
2022-08-03T17:15:38.487Z,40.32
2022-08-03T17:19:01.992Z,40.16
2022-08-03T17:22:13.289Z,40.15
2022-08-03T17:25:39.932Z,40.12
2022-08-03T17:28:58.084Z,40.09
2022-08-03T17:32:09.761Z,40.07
2022-08-03T17:35:19.007Z,40.00
2022-08-03T17:38:28.959Z,39.90
2022-08-03T17:41:49.926Z,39.80
2022-08-03T17:44:58.694Z,39.11
2022-08-03T17:48:10.382Z,38.71
2022-08-03T17:51:35.024Z,38.43
2022-08-03T17:55:56.318Z,38.08
2022-08-03T17:58:38.684Z,37.80
2022-08-03T18:02:28.003Z,37.33
2022-08-03T18:06:10.418Z,36.76
2022-08-03T18:10:03.484Z,36.09
2022-08-03T18:12:51.850Z,35.33
2022-08-03T18:16:05.327Z,34.61
2022-08-03T18:19:13.739Z,33.92
2022-08-03T18:22:25.209Z,33.28
2022-08-03T18:25:45.431Z,32.71
2022-08-03T18:28:59.142Z,32.18
2022-08-03T18:32:16.718Z,31.67
2022-08-03T18:35:26.769Z,31.23
2022-08-03T18:38:55.552Z,30.84
2022-08-03T18:42:07.942Z,30.49
2022-08-03T18:45:57.351Z,30.14
2022-08-03T18:49:08.041Z,29.79
2022-08-03T18:52:19.076Z,29.49
2022-08-03T18:55:33.577Z,29.23
2022-08-03T18:58:51.451Z,28.96
2022-08-03T19:02:09.241Z,28.71
2022-08-03T19:05:21.746Z,28.51
2022-08-03T19:08:44.139Z,28.36
2022-08-03T19:12:11.051Z,28.19
2022-08-03T19:15:36.461Z,28.04
2022-08-03T19:18:48.414Z,27.91
2022-08-03T19:21:57.938Z,27.77
2022-08-03T19:25:07.163Z,27.61
2022-08-03T19:28:20.899Z,27.44
2022-08-03T19:31:40.556Z,27.28
2022-08-03T19:35:13.350Z,27.07
2022-08-03T19:38:29.510Z,26.86
2022-08-03T19:41:41.626Z,26.69
2022-08-03T19:44:57.197Z,26.49
2022-08-03T19:48:10.395Z,26.30
2022-08-03T19:51:18.280Z,26.11
2022-08-03T19:54:53.712Z,25.91
2022-08-03T19:58:03.848Z,25.71
2022-08-03T20:01:21.312Z,25.56
2022-08-03T20:04:29.214Z,25.44
2022-08-03T20:07:37.413Z,25.26
2022-08-03T20:10:49.230Z,25.13
2022-08-03T20:14:00.427Z,25.00
2022-08-03T20:17:09.322Z,24.89
2022-08-03T20:20:19.944Z,24.82
2022-08-03T20:23:37.413Z,24.74
2022-08-03T20:26:45.805Z,24.64
2022-08-03T20:30:06.429Z,24.54
2022-08-03T20:33:19.035Z,24.43
2022-08-03T20:36:27.776Z,24.35
2022-08-03T20:39:34.299Z,24.26
2022-08-03T20:42:41.688Z,24.18
2022-08-03T20:46:01.009Z,24.10
2022-08-03T20:49:19.934Z,24.01
2022-08-03T20:52:32.627Z,23.92
2022-08-03T20:55:47.954Z,23.84
2022-08-03T20:59:15.229Z,23.76
2022-08-03T21:02:29.766Z,23.68
2022-08-03T21:05:51.007Z,23.63
2022-08-03T21:09:06.638Z,23.58
2022-08-03T21:12:19.815Z,23.52
2022-08-03T21:16:11.353Z,23.44
2022-08-03T21:19:06.075Z,23.38
2022-08-03T21:22:18.021Z,23.31
2022-08-03T21:25:27.353Z,23.26
2022-08-03T21:28:35.650Z,23.21
2022-08-03T21:31:44.634Z,23.17
2022-08-03T21:34:53.437Z,23.15
2022-08-03T21:38:20.044Z,23.09
2022-08-03T21:41:28.673Z,23.05
2022-08-03T21:44:36.121Z,23.01
2022-08-03T21:47:45.140Z,22.96
2022-08-03T21:50:54.559Z,22.90
2022-08-03T21:54:04.636Z,22.84
2022-08-03T21:57:20.316Z,22.78
2022-08-03T22:00:27.795Z,22.71
2022-08-03T22:03:53.279Z,22.68
2022-08-03T22:07:02.265Z,22.65
2022-08-03T22:10:10.778Z,22.60
2022-08-03T22:13:42.897Z,22.56
2022-08-03T22:16:48.399Z,22.53
2022-08-03T22:19:55.463Z,22.51
2022-08-03T22:23:05.401Z,22.50
2022-08-03T22:26:17.096Z,22.49
2022-08-03T22:29:45.120Z,22.48
2022-08-03T22:32:56.658Z,22.49
2022-08-03T22:36:08.437Z,22.48
2022-08-03T22:39:22.804Z,22.45
2022-08-03T22:42:35.269Z,22.44
2022-08-03T22:46:08.930Z,22.41
2022-08-03T22:49:16.117Z,22.35
2022-08-03T22:52:22.640Z,22.32
2022-08-03T22:55:30.286Z,22.29
2022-08-03T22:58:38.009Z,22.23
2022-08-03T23:01:48.647Z,22.18
2022-08-03T23:04:58.940Z,22.12
2022-08-03T23:08:09.950Z,22.05
2022-08-03T23:11:19.398Z,21.98
2022-08-03T23:14:30.382Z,21.92
2022-08-03T23:17:57.824Z,21.84
2022-08-03T23:21:11.054Z,21.76
2022-08-03T23:24:29.076Z,21.69
2022-08-03T23:27:41.486Z,21.62
2022-08-03T23:30:50.981Z,21.55
2022-08-03T23:34:17.281Z,21.49
2022-08-03T23:37:25.889Z,21.42
2022-08-03T23:40:34.606Z,21.34
2022-08-03T23:43:51.807Z,21.28
2022-08-03T23:47:01.463Z,21.21
2022-08-03T23:50:09.879Z,21.15
2022-08-03T23:53:30.170Z,21.11
2022-08-03T23:56:47.117Z,21.05
